YZR7919 ZSNJ-ZWWW
Flight info
| Callsign | YZR7919 |
|---|---|
| Flight time | N/A |
| Altitude | 34100 |
| Route | HFE B208 TAMIX W4 LIMGI W152 SHX ZS OLMEK DOVOP W541 OVKAB W94 XFG W213 APESU W197 ANDIM B215 IBANO G470 QTV W99 FKG |
| Aircraft | B77L/H-SDE2E3FGILRWXY/LB2 |
Departure
| Time | N/A |
|---|---|
| Airport | Nanjing Lukou International Airport (ZSNJ) |
Arrival
| Time | 2026-04-21 06:09 |
|---|---|
| Airport | Ürümqi Tianshan International Airport (ZWWW) |
| Time | Latitude | Longitude | Altitude | Speed | Heading |
|---|---|---|---|---|---|
| 2026-04-21 04:11 | 37.76991 | 101.06030 | 34363 ft | 445 kts | 295° |
| 2026-04-21 04:12 | 37.78442 | 101.02574 | 34355 ft | 444 kts | 295° |
| 2026-04-21 04:12 | 37.81360 | 100.95609 | 34345 ft | 445 kts | 295° |
| 2026-04-21 04:13 | 37.84295 | 100.88715 | 34358 ft | 444 kts | 296° |
| 2026-04-21 04:13 | 37.87358 | 100.81900 | 34349 ft | 444 kts | 297° |
| 2026-04-21 04:14 | 37.90411 | 100.75079 | 34365 ft | 445 kts | 297° |
| 2026-04-21 04:14 | 37.93450 | 100.68261 | 34384 ft | 446 kts | 296° |
| 2026-04-21 04:15 | 37.96497 | 100.61405 | 34384 ft | 444 kts | 296° |
| 2026-04-21 04:15 | 37.99540 | 100.54538 | 34382 ft | 444 kts | 296° |
| 2026-04-21 04:16 | 38.02577 | 100.47670 | 34384 ft | 444 kts | 296° |
| 2026-04-21 04:16 | 38.05609 | 100.40798 | 34377 ft | 444 kts | 296° |
| 2026-04-21 04:17 | 38.08617 | 100.33963 | 34381 ft | 443 kts | 296° |
| 2026-04-21 04:17 | 38.11602 | 100.27169 | 34388 ft | 444 kts | 295° |
| 2026-04-21 04:18 | 38.14606 | 100.20316 | 34375 ft | 441 kts | 295° |
| 2026-04-21 04:18 | 38.17596 | 100.13477 | 34392 ft | 444 kts | 295° |
| 2026-04-21 04:19 | 38.20586 | 100.06626 | 34365 ft | 442 kts | 295° |
| 2026-04-21 04:19 | 38.23555 | 99.99809 | 34377 ft | 442 kts | 295° |
| 2026-04-21 04:20 | 38.26537 | 99.92945 | 34388 ft | 443 kts | 295° |
| 2026-04-21 04:20 | 38.29533 | 99.86037 | 34368 ft | 440 kts | 295° |
| 2026-04-21 04:21 | 38.32507 | 99.79163 | 34385 ft | 441 kts | 295° |
| 2026-04-21 04:21 | 38.35464 | 99.72315 | 34360 ft | 441 kts | 295° |
| 2026-04-21 04:22 | 38.38410 | 99.65474 | 34375 ft | 440 kts | 295° |
| 2026-04-21 04:22 | 38.41362 | 99.58607 | 34365 ft | 438 kts | 295° |
| 2026-04-21 04:23 | 38.44293 | 99.51773 | 34378 ft | 439 kts | 295° |
| 2026-04-21 04:23 | 38.47247 | 99.44871 | 34371 ft | 439 kts | 295° |
| 2026-04-21 04:24 | 38.50162 | 99.38045 | 34363 ft | 437 kts | 295° |
| 2026-04-21 04:24 | 38.53071 | 99.31218 | 34352 ft | 439 kts | 294° |
| 2026-04-21 04:25 | 38.55982 | 99.24372 | 34317 ft | 436 kts | 294° |
| 2026-04-21 04:25 | 38.58862 | 99.17584 | 34325 ft | 436 kts | 294° |
| 2026-04-21 04:26 | 38.61744 | 99.10777 | 34356 ft | 436 kts | 294° |
| 2026-04-21 04:26 | 38.64630 | 99.03944 | 34374 ft | 435 kts | 294° |
| 2026-04-21 04:27 | 38.67526 | 98.97074 | 34404 ft | 436 kts | 294° |
| 2026-04-21 04:27 | 38.70397 | 98.90250 | 34369 ft | 434 kts | 294° |
| 2026-04-21 04:28 | 38.73283 | 98.83371 | 34315 ft | 435 kts | 294° |
| 2026-04-21 04:28 | 38.76159 | 98.76504 | 34316 ft | 434 kts | 294° |
| 2026-04-21 04:29 | 38.79015 | 98.69667 | 34312 ft | 436 kts | 294° |
| 2026-04-21 04:29 | 38.81873 | 98.62815 | 34332 ft | 432 kts | 294° |
| 2026-04-21 04:30 | 38.84700 | 98.56016 | 34375 ft | 435 kts | 294° |
| 2026-04-21 04:30 | 38.87537 | 98.49184 | 34396 ft | 431 kts | 294° |
| 2026-04-21 04:31 | 38.90383 | 98.42310 | 34370 ft | 433 kts | 293° |
| 2026-04-21 04:31 | 38.93212 | 98.35467 | 34321 ft | 432 kts | 294° |
| 2026-04-21 04:32 | 38.96025 | 98.28642 | 34303 ft | 431 kts | 293° |
| 2026-04-21 04:32 | 38.98818 | 98.21856 | 34274 ft | 428 kts | 292° |
| 2026-04-21 04:33 | 39.01609 | 98.15054 | 34312 ft | 431 kts | 293° |
| 2026-04-21 04:33 | 39.04376 | 98.08302 | 34357 ft | 427 kts | 293° |
| 2026-04-21 04:34 | 39.07151 | 98.01512 | 34392 ft | 428 kts | 293° |
| 2026-04-21 04:34 | 39.09904 | 97.94763 | 34406 ft | 425 kts | 292° |
| 2026-04-21 04:35 | 39.12675 | 97.87952 | 34359 ft | 428 kts | 292° |
| 2026-04-21 04:35 | 39.15425 | 97.81181 | 34318 ft | 425 kts | 293° |
| 2026-04-21 04:36 | 39.18154 | 97.74443 | 34268 ft | 428 kts | 292° |
| 2026-04-21 04:36 | 39.20918 | 97.67606 | 34264 ft | 425 kts | 292° |
| 2026-04-21 04:37 | 39.23646 | 97.60846 | 34256 ft | 426 kts | 293° |
| 2026-04-21 04:37 | 39.26395 | 97.54042 | 34270 ft | 427 kts | 293° |
| 2026-04-21 04:38 | 39.29138 | 97.47240 | 34293 ft | 425 kts | 292° |
| 2026-04-21 04:38 | 39.31887 | 97.40409 | 34306 ft | 426 kts | 292° |
| 2026-04-21 04:39 | 39.34631 | 97.33571 | 34318 ft | 425 kts | 292° |
| 2026-04-21 04:39 | 39.37347 | 97.26789 | 34348 ft | 425 kts | 291° |
| 2026-04-21 04:40 | 39.40056 | 97.20011 | 34364 ft | 425 kts | 292° |
| 2026-04-21 04:40 | 39.42772 | 97.13197 | 34354 ft | 425 kts | 292° |
| 2026-04-21 04:41 | 39.45458 | 97.06447 | 34374 ft | 424 kts | 292° |
| 2026-04-21 04:41 | 39.48166 | 96.99657 | 34356 ft | 422 kts | 292° |
| 2026-04-21 04:42 | 39.50902 | 96.92837 | 34363 ft | 425 kts | 292° |
| 2026-04-21 04:42 | 39.53619 | 96.86052 | 34359 ft | 421 kts | 292° |
| 2026-04-21 04:43 | 39.56315 | 96.79298 | 34308 ft | 425 kts | 292° |
| 2026-04-21 04:43 | 39.59060 | 96.72407 | 34331 ft | 420 kts | 292° |
| 2026-04-21 04:44 | 39.61753 | 96.65629 | 34314 ft | 424 kts | 292° |
| 2026-04-21 04:44 | 39.64456 | 96.58804 | 34321 ft | 421 kts | 292° |
| 2026-04-21 04:45 | 39.67149 | 96.51965 | 34303 ft | 421 kts | 292° |
| 2026-04-21 04:45 | 39.69834 | 96.45131 | 34320 ft | 424 kts | 291° |
| 2026-04-21 04:46 | 39.72514 | 96.38296 | 34313 ft | 420 kts | 292° |
| 2026-04-21 04:46 | 39.75160 | 96.31534 | 34310 ft | 421 kts | 290° |
| 2026-04-21 04:47 | 39.77817 | 96.24727 | 34315 ft | 420 kts | 291° |
| 2026-04-21 04:47 | 39.80454 | 96.17957 | 34317 ft | 422 kts | 290° |
| 2026-04-21 04:48 | 39.83088 | 96.11178 | 34316 ft | 419 kts | 290° |
| 2026-04-21 04:48 | 39.85733 | 96.04356 | 34329 ft | 421 kts | 291° |
| 2026-04-21 04:49 | 39.88364 | 95.97554 | 34299 ft | 420 kts | 291° |
| 2026-04-21 04:49 | 39.90974 | 95.90789 | 34289 ft | 422 kts | 290° |
| 2026-04-21 04:50 | 39.93603 | 95.83962 | 34293 ft | 422 kts | 290° |
| 2026-04-21 04:50 | 39.96219 | 95.77153 | 34277 ft | 423 kts | 290° |
| 2026-04-21 04:51 | 39.98842 | 95.70312 | 34279 ft | 422 kts | 290° |
| 2026-04-21 04:51 | 40.01458 | 95.63467 | 34278 ft | 428 kts | 290° |
| 2026-04-21 04:52 | 40.04110 | 95.56519 | 34280 ft | 424 kts | 290° |
| 2026-04-21 04:52 | 40.06744 | 95.49597 | 34278 ft | 428 kts | 290° |
| 2026-04-21 04:53 | 40.09386 | 95.42644 | 34281 ft | 427 kts | 290° |
| 2026-04-21 04:53 | 40.12028 | 95.35668 | 34269 ft | 429 kts | 290° |
| 2026-04-21 04:54 | 40.14662 | 95.28698 | 34281 ft | 432 kts | 290° |
| 2026-04-21 04:54 | 40.17313 | 95.21670 | 34285 ft | 428 kts | 289° |
| 2026-04-21 04:55 | 40.19952 | 95.14652 | 34272 ft | 433 kts | 290° |
| 2026-04-21 04:55 | 40.22649 | 95.07561 | 34268 ft | 434 kts | 290° |
| 2026-04-21 04:56 | 40.25323 | 95.00539 | 34265 ft | 431 kts | 290° |
| 2026-04-21 04:56 | 40.28033 | 94.93395 | 34262 ft | 438 kts | 291° |
| 2026-04-21 04:57 | 40.30868 | 94.86382 | 34256 ft | 442 kts | 297° |
| 2026-04-21 04:57 | 40.34643 | 94.79939 | 34253 ft | 451 kts | 302° |
| 2026-04-21 04:58 | 40.38534 | 94.73537 | 34247 ft | 448 kts | 302° |
| 2026-04-21 04:58 | 40.42422 | 94.67119 | 34240 ft | 449 kts | 302° |
| 2026-04-21 04:59 | 40.46305 | 94.60689 | 34238 ft | 450 kts | 302° |
| 2026-04-21 04:59 | 40.50179 | 94.54259 | 34243 ft | 453 kts | 303° |
| 2026-04-21 05:00 | 40.54091 | 94.47752 | 34236 ft | 451 kts | 303° |
| 2026-04-21 05:00 | 40.59907 | 94.38049 | 34238 ft | 453 kts | 303° |
| 2026-04-21 05:01 | 40.63838 | 94.31474 | 34246 ft | 453 kts | 303° |
| 2026-04-21 05:01 | 40.67732 | 94.24948 | 34245 ft | 454 kts | 303° |
| 2026-04-21 05:02 | 40.71649 | 94.18368 | 34250 ft | 454 kts | 303° |
| 2026-04-21 05:02 | 40.75544 | 94.11809 | 34243 ft | 456 kts | 303° |
| 2026-04-21 05:03 | 40.79471 | 94.05187 | 34245 ft | 456 kts | 303° |
| 2026-04-21 05:03 | 40.83366 | 93.98601 | 34237 ft | 457 kts | 303° |
| 2026-04-21 05:04 | 40.87263 | 93.91999 | 34238 ft | 457 kts | 304° |
| 2026-04-21 05:04 | 40.91203 | 93.85308 | 34230 ft | 460 kts | 304° |
| 2026-04-21 05:05 | 40.95315 | 93.78794 | 34232 ft | 461 kts | 307° |
| 2026-04-21 05:05 | 40.99479 | 93.72400 | 34230 ft | 463 kts | 307° |
| 2026-04-21 05:06 | 41.03672 | 93.65923 | 34241 ft | 463 kts | 307° |
| 2026-04-21 05:06 | 41.07890 | 93.59378 | 34216 ft | 462 kts | 307° |
| 2026-04-21 05:07 | 41.12071 | 93.52869 | 34238 ft | 465 kts | 307° |
| 2026-04-21 05:07 | 41.16230 | 93.46377 | 34216 ft | 463 kts | 307° |
| 2026-04-21 05:08 | 41.20430 | 93.39804 | 34206 ft | 465 kts | 307° |
| 2026-04-21 05:08 | 41.24605 | 93.33256 | 34226 ft | 466 kts | 307° |
| 2026-04-21 05:09 | 41.28786 | 93.26683 | 34207 ft | 466 kts | 307° |
| 2026-04-21 05:09 | 41.32978 | 93.20080 | 34217 ft | 467 kts | 307° |
| 2026-04-21 05:10 | 41.37129 | 93.13525 | 34228 ft | 467 kts | 307° |
| 2026-04-21 05:10 | 41.41310 | 93.06908 | 34202 ft | 467 kts | 307° |
| 2026-04-21 05:11 | 41.45499 | 93.00265 | 34215 ft | 467 kts | 307° |
| 2026-04-21 05:11 | 41.49707 | 92.93577 | 34205 ft | 467 kts | 307° |
| 2026-04-21 05:12 | 41.53898 | 92.86903 | 34205 ft | 467 kts | 307° |
| 2026-04-21 05:12 | 41.58075 | 92.80234 | 34205 ft | 467 kts | 308° |
| 2026-04-21 05:13 | 41.62259 | 92.73537 | 34195 ft | 468 kts | 308° |
| 2026-04-21 05:13 | 41.66434 | 92.66843 | 34196 ft | 467 kts | 308° |
| 2026-04-21 05:14 | 41.70640 | 92.60084 | 34195 ft | 468 kts | 308° |
| 2026-04-21 05:14 | 41.74816 | 92.53356 | 34194 ft | 468 kts | 308° |
| 2026-04-21 05:15 | 41.78984 | 92.46627 | 34176 ft | 468 kts | 308° |
| 2026-04-21 05:15 | 41.83128 | 92.39923 | 34207 ft | 469 kts | 308° |
| 2026-04-21 05:16 | 41.87286 | 92.33179 | 34169 ft | 468 kts | 308° |
| 2026-04-21 05:16 | 41.91434 | 92.26437 | 34191 ft | 469 kts | 308° |
| 2026-04-21 05:17 | 41.95560 | 92.19716 | 34200 ft | 468 kts | 308° |
| 2026-04-21 05:17 | 41.99692 | 92.12971 | 34195 ft | 469 kts | 308° |
| 2026-04-21 05:18 | 42.03849 | 92.06169 | 34174 ft | 468 kts | 308° |
| 2026-04-21 05:18 | 42.07949 | 91.99445 | 34204 ft | 469 kts | 308° |
| 2026-04-21 05:19 | 42.12097 | 91.92626 | 34197 ft | 469 kts | 308° |
| 2026-04-21 05:19 | 42.16209 | 91.85851 | 34191 ft | 469 kts | 308° |
| 2026-04-21 05:20 | 42.20327 | 91.79050 | 34194 ft | 471 kts | 308° |
| 2026-04-21 05:20 | 42.25017 | 91.72952 | 34180 ft | 472 kts | 324° |
| 2026-04-21 05:21 | 42.30593 | 91.68299 | 34202 ft | 473 kts | 328° |
| 2026-04-21 05:21 | 42.36213 | 91.63744 | 34202 ft | 473 kts | 328° |
| 2026-04-21 05:22 | 42.41819 | 91.59168 | 34204 ft | 472 kts | 328° |
| 2026-04-21 05:22 | 42.47438 | 91.54559 | 34180 ft | 473 kts | 328° |
| 2026-04-21 05:23 | 42.53065 | 91.49927 | 34178 ft | 473 kts | 328° |
| 2026-04-21 05:23 | 42.58656 | 91.45312 | 34184 ft | 473 kts | 328° |
| 2026-04-21 05:24 | 42.64308 | 91.40635 | 34163 ft | 472 kts | 328° |
| 2026-04-21 05:24 | 42.69888 | 91.36007 | 34161 ft | 473 kts | 328° |
| 2026-04-21 05:25 | 42.75526 | 91.31319 | 34159 ft | 472 kts | 328° |
| 2026-04-21 05:25 | 42.81129 | 91.26651 | 34150 ft | 474 kts | 328° |
| 2026-04-21 05:26 | 42.86723 | 91.21941 | 34145 ft | 473 kts | 325° |
| 2026-04-21 05:26 | 42.91648 | 91.16063 | 34151 ft | 474 kts | 315° |
| 2026-04-21 05:27 | 42.96326 | 91.09725 | 34142 ft | 474 kts | 315° |
| 2026-04-21 05:27 | 43.00992 | 91.03383 | 34157 ft | 475 kts | 315° |
| 2026-04-21 05:28 | 43.05667 | 90.97012 | 34158 ft | 474 kts | 315° |
| 2026-04-21 05:28 | 43.10335 | 90.90636 | 34167 ft | 473 kts | 316° |
| 2026-04-21 05:29 | 43.14960 | 90.84306 | 34169 ft | 473 kts | 315° |
| 2026-04-21 05:29 | 43.19626 | 90.77902 | 34176 ft | 473 kts | 316° |
| 2026-04-21 05:30 | 43.24276 | 90.71508 | 34196 ft | 473 kts | 316° |
| 2026-04-21 05:30 | 43.28897 | 90.65138 | 34193 ft | 473 kts | 316° |
| 2026-04-21 05:31 | 43.33530 | 90.58738 | 34205 ft | 473 kts | 316° |
| 2026-04-21 05:31 | 43.38168 | 90.52304 | 34137 ft | 472 kts | 315° |
| 2026-04-21 05:32 | 43.40398 | 90.49016 | 33687 ft | 470 kts | 314° |
| 2026-04-21 05:32 | 43.42593 | 90.45723 | 33230 ft | 465 kts | 314° |
| 2026-04-21 05:32 | 43.44742 | 90.42499 | 32751 ft | 461 kts | 314° |
| 2026-04-21 05:32 | 43.46912 | 90.39243 | 32259 ft | 457 kts | 314° |
| 2026-04-21 05:33 | 43.49032 | 90.36065 | 31773 ft | 453 kts | 314° |
| 2026-04-21 05:33 | 43.51173 | 90.32853 | 31271 ft | 449 kts | 314° |
| 2026-04-21 05:33 | 43.53256 | 90.29730 | 30780 ft | 445 kts | 314° |
| 2026-04-21 05:33 | 43.55345 | 90.26592 | 30249 ft | 442 kts | 314° |
| 2026-04-21 05:34 | 43.57398 | 90.23508 | 29712 ft | 438 kts | 314° |
| 2026-04-21 05:34 | 43.59446 | 90.20429 | 29183 ft | 435 kts | 314° |
| 2026-04-21 05:34 | 43.61501 | 90.17337 | 28640 ft | 432 kts | 314° |
| 2026-04-21 05:34 | 43.63510 | 90.14311 | 28110 ft | 429 kts | 314° |
| 2026-04-21 05:35 | 43.65505 | 90.11304 | 27586 ft | 426 kts | 314° |
| 2026-04-21 05:35 | 43.67503 | 90.08288 | 27054 ft | 423 kts | 314° |
| 2026-04-21 05:35 | 43.69467 | 90.05340 | 26531 ft | 420 kts | 314° |
| 2026-04-21 05:35 | 43.71457 | 90.02372 | 25997 ft | 417 kts | 314° |
| 2026-04-21 05:36 | 43.73415 | 89.99447 | 25477 ft | 414 kts | 314° |
| 2026-04-21 05:36 | 43.75346 | 89.96557 | 24938 ft | 411 kts | 314° |
| 2026-04-21 05:36 | 43.77278 | 89.93663 | 24409 ft | 408 kts | 314° |
| 2026-04-21 05:36 | 43.79192 | 89.90794 | 23876 ft | 406 kts | 314° |
| 2026-04-21 05:37 | 43.81080 | 89.87960 | 23360 ft | 403 kts | 314° |
| 2026-04-21 05:37 | 43.82984 | 89.85099 | 22837 ft | 401 kts | 314° |
| 2026-04-21 05:37 | 43.84863 | 89.82272 | 22329 ft | 398 kts | 314° |
| 2026-04-21 05:37 | 43.86709 | 89.79493 | 21922 ft | 393 kts | 314° |
| 2026-04-21 05:38 | 43.88556 | 89.76708 | 21531 ft | 387 kts | 314° |
| 2026-04-21 05:38 | 43.90349 | 89.74002 | 21153 ft | 382 kts | 314° |
| 2026-04-21 05:38 | 43.92135 | 89.71305 | 20767 ft | 377 kts | 314° |
| 2026-04-21 05:38 | 43.93895 | 89.68643 | 20378 ft | 372 kts | 314° |
| 2026-04-21 05:39 | 43.95558 | 89.65970 | 19991 ft | 368 kts | 309° |
| 2026-04-21 05:39 | 43.96994 | 89.63055 | 19608 ft | 364 kts | 302° |
| 2026-04-21 05:39 | 43.98161 | 89.59968 | 19218 ft | 361 kts | 295° |
| 2026-04-21 05:39 | 43.99051 | 89.56760 | 18834 ft | 357 kts | 289° |
| 2026-04-21 05:40 | 43.99672 | 89.53431 | 18450 ft | 354 kts | 282° |
| 2026-04-21 05:40 | 44.00087 | 89.50085 | 18071 ft | 350 kts | 281° |
| 2026-04-21 05:40 | 44.00486 | 89.46785 | 17694 ft | 347 kts | 281° |
| 2026-04-21 05:40 | 44.00874 | 89.43507 | 17323 ft | 343 kts | 281° |
| 2026-04-21 05:41 | 44.01253 | 89.40250 | 16875 ft | 336 kts | 281° |
| 2026-04-21 05:41 | 44.01615 | 89.37118 | 16532 ft | 328 kts | 281° |
| 2026-04-21 05:41 | 44.01973 | 89.34009 | 16180 ft | 322 kts | 280° |
| 2026-04-21 05:41 | 44.02321 | 89.30969 | 15809 ft | 320 kts | 281° |
| 2026-04-21 05:42 | 44.02666 | 89.27951 | 15444 ft | 318 kts | 280° |
| 2026-04-21 05:42 | 44.03009 | 89.24931 | 15070 ft | 316 kts | 280° |
| 2026-04-21 05:42 | 44.03353 | 89.21902 | 14693 ft | 314 kts | 280° |
| 2026-04-21 05:42 | 44.03689 | 89.18933 | 14323 ft | 313 kts | 280° |
| 2026-04-21 05:43 | 44.04023 | 89.15977 | 13947 ft | 311 kts | 280° |
| 2026-04-21 05:43 | 44.04358 | 89.13004 | 13570 ft | 309 kts | 280° |
| 2026-04-21 05:43 | 44.04686 | 89.10080 | 13201 ft | 308 kts | 280° |
| 2026-04-21 05:43 | 44.05016 | 89.07138 | 12826 ft | 307 kts | 280° |
| 2026-04-21 05:44 | 44.05342 | 89.04221 | 12462 ft | 306 kts | 280° |
| 2026-04-21 05:44 | 44.05668 | 89.01306 | 12084 ft | 305 kts | 280° |
| 2026-04-21 05:44 | 44.05989 | 88.98425 | 11711 ft | 304 kts | 279° |
| 2026-04-21 05:44 | 44.06310 | 88.95528 | 11343 ft | 303 kts | 280° |
| 2026-04-21 05:45 | 44.06631 | 88.92636 | 10968 ft | 302 kts | 280° |
| 2026-04-21 05:45 | 44.06945 | 88.89795 | 10598 ft | 302 kts | 279° |
| 2026-04-21 05:45 | 44.07262 | 88.86914 | 10225 ft | 301 kts | 279° |
| 2026-04-21 05:45 | 44.07580 | 88.84023 | 9845 ft | 301 kts | 280° |
| 2026-04-21 05:46 | 44.07909 | 88.81201 | 9478 ft | 300 kts | 280° |
| 2026-04-21 05:46 | 44.08247 | 88.78353 | 9107 ft | 300 kts | 280° |
| 2026-04-21 05:46 | 44.08585 | 88.75480 | 8728 ft | 299 kts | 281° |
| 2026-04-21 05:46 | 44.08921 | 88.72613 | 8350 ft | 299 kts | 281° |
| 2026-04-21 05:47 | 44.09253 | 88.69762 | 8006 ft | 297 kts | 281° |
| 2026-04-21 05:47 | 44.09575 | 88.66988 | 7935 ft | 285 kts | 281° |
| 2026-04-21 05:47 | 44.09880 | 88.64352 | 7930 ft | 273 kts | 281° |
| 2026-04-21 05:47 | 44.10184 | 88.61732 | 7936 ft | 273 kts | 281° |
| 2026-04-21 05:48 | 44.10484 | 88.59144 | 7936 ft | 273 kts | 281° |
| 2026-04-21 05:48 | 44.10786 | 88.56527 | 7936 ft | 273 kts | 281° |
| 2026-04-21 05:48 | 44.11087 | 88.53911 | 7936 ft | 273 kts | 281° |
| 2026-04-21 05:48 | 44.11383 | 88.51325 | 7937 ft | 274 kts | 281° |
| 2026-04-21 05:49 | 44.11686 | 88.48690 | 7938 ft | 274 kts | 281° |
| 2026-04-21 05:49 | 44.11982 | 88.46093 | 7938 ft | 274 kts | 281° |
| 2026-04-21 05:49 | 44.12282 | 88.43465 | 7937 ft | 274 kts | 281° |
| 2026-04-21 05:49 | 44.12578 | 88.40868 | 7936 ft | 274 kts | 281° |
| 2026-04-21 05:50 | 44.12877 | 88.38234 | 7936 ft | 274 kts | 281° |
| 2026-04-21 05:50 | 44.13175 | 88.35609 | 7937 ft | 275 kts | 281° |
| 2026-04-21 05:50 | 44.13473 | 88.32977 | 7936 ft | 274 kts | 280° |
| 2026-04-21 05:50 | 44.13764 | 88.30396 | 7935 ft | 273 kts | 280° |
| 2026-04-21 05:51 | 44.14059 | 88.27779 | 7936 ft | 275 kts | 281° |
| 2026-04-21 05:51 | 44.14354 | 88.25150 | 7935 ft | 275 kts | 281° |
| 2026-04-21 05:51 | 44.14650 | 88.22518 | 7934 ft | 274 kts | 281° |
| 2026-04-21 05:51 | 44.14943 | 88.19900 | 7935 ft | 275 kts | 281° |
| 2026-04-21 05:52 | 44.15235 | 88.17285 | 7935 ft | 274 kts | 281° |
| 2026-04-21 05:52 | 44.15525 | 88.14682 | 7935 ft | 274 kts | 281° |
| 2026-04-21 05:52 | 44.15819 | 88.12043 | 7937 ft | 274 kts | 281° |
| 2026-04-21 05:52 | 44.16108 | 88.09441 | 7937 ft | 275 kts | 281° |
| 2026-04-21 05:53 | 44.16401 | 88.06789 | 7942 ft | 275 kts | 281° |
| 2026-04-21 05:53 | 44.16691 | 88.04168 | 7939 ft | 276 kts | 281° |
| 2026-04-21 05:53 | 44.16969 | 88.01505 | 7736 ft | 280 kts | 277° |
| 2026-04-21 05:53 | 44.16988 | 87.98801 | 7516 ft | 276 kts | 266° |
| 2026-04-21 05:54 | 44.16678 | 87.96207 | 7393 ft | 275 kts | 256° |
| 2026-04-21 05:54 | 44.16079 | 87.93665 | 7284 ft | 276 kts | 251° |
| 2026-04-21 05:54 | 44.15439 | 87.91159 | 7182 ft | 277 kts | 251° |
| 2026-04-21 05:54 | 44.14782 | 87.88625 | 7083 ft | 276 kts | 251° |
| 2026-04-21 05:55 | 44.14127 | 87.86129 | 6987 ft | 275 kts | 251° |
| 2026-04-21 05:55 | 44.13475 | 87.83649 | 6887 ft | 275 kts | 251° |
| 2026-04-21 05:55 | 44.12808 | 87.81120 | 6788 ft | 274 kts | 251° |
| 2026-04-21 05:55 | 44.12156 | 87.78653 | 6695 ft | 273 kts | 251° |
| 2026-04-21 05:56 | 44.11499 | 87.76166 | 6600 ft | 272 kts | 251° |
| 2026-04-21 05:56 | 44.10852 | 87.73720 | 6504 ft | 271 kts | 251° |
| 2026-04-21 05:56 | 44.10205 | 87.71277 | 6413 ft | 271 kts | 251° |
| 2026-04-21 05:56 | 44.09546 | 87.68792 | 6312 ft | 271 kts | 251° |
| 2026-04-21 05:57 | 44.08898 | 87.66349 | 6217 ft | 270 kts | 251° |
| 2026-04-21 05:57 | 44.08246 | 87.63893 | 6122 ft | 270 kts | 251° |
| 2026-04-21 05:57 | 44.07605 | 87.61483 | 6024 ft | 269 kts | 251° |
| 2026-04-21 05:57 | 44.06952 | 87.59032 | 5946 ft | 267 kts | 251° |
| 2026-04-21 05:58 | 44.06307 | 87.56609 | 5937 ft | 268 kts | 251° |
| 2026-04-21 05:58 | 44.05667 | 87.54213 | 5936 ft | 266 kts | 251° |
| 2026-04-21 05:58 | 44.05022 | 87.51795 | 5933 ft | 266 kts | 251° |
| 2026-04-21 05:58 | 44.04374 | 87.49373 | 5932 ft | 266 kts | 251° |
| 2026-04-21 05:59 | 44.03736 | 87.46988 | 5934 ft | 264 kts | 251° |
| 2026-04-21 05:59 | 44.03101 | 87.44617 | 5928 ft | 264 kts | 251° |
| 2026-04-21 05:59 | 44.02459 | 87.42220 | 5924 ft | 263 kts | 251° |
| 2026-04-21 06:00 | 44.01186 | 87.37480 | 5928 ft | 263 kts | 251° |
| 2026-04-21 06:00 | 44.00546 | 87.35100 | 5928 ft | 263 kts | 251° |
| 2026-04-21 06:00 | 43.99908 | 87.32729 | 5834 ft | 263 kts | 251° |
| 2026-04-21 06:00 | 43.99271 | 87.30366 | 5729 ft | 257 kts | 250° |
| 2026-04-21 06:01 | 43.98663 | 87.28112 | 5627 ft | 247 kts | 251° |
| 2026-04-21 06:01 | 43.98067 | 87.25906 | 5525 ft | 238 kts | 251° |
| 2026-04-21 06:01 | 43.97495 | 87.23788 | 5422 ft | 229 kts | 251° |
| 2026-04-21 06:01 | 43.96951 | 87.21774 | 5325 ft | 221 kts | 251° |
| 2026-04-21 06:02 | 43.96411 | 87.19775 | 5230 ft | 219 kts | 250° |
| 2026-04-21 06:02 | 43.95878 | 87.17806 | 5133 ft | 218 kts | 250° |
| 2026-04-21 06:02 | 43.95095 | 87.16048 | 5039 ft | 215 kts | 224° |
| 2026-04-21 06:02 | 43.93828 | 87.15051 | 4931 ft | 202 kts | 193° |
| 2026-04-21 06:03 | 43.92469 | 87.15008 | 4927 ft | 199 kts | 169° |
| 2026-04-21 06:03 | 43.91111 | 87.15434 | 4926 ft | 199 kts | 165° |
| 2026-04-21 06:03 | 43.89775 | 87.15962 | 4940 ft | 199 kts | 163° |
| 2026-04-21 06:03 | 43.88458 | 87.16533 | 4949 ft | 199 kts | 159° |
| 2026-04-21 06:04 | 43.87360 | 87.17654 | 4942 ft | 198 kts | 123° |
| 2026-04-21 06:04 | 43.86814 | 87.19347 | 4920 ft | 190 kts | 93° |
| 2026-04-21 06:04 | 43.87037 | 87.21058 | 4939 ft | 177 kts | 69° |
| 2026-04-21 06:04 | 43.87449 | 87.22634 | 4933 ft | 173 kts | 70° |
| 2026-04-21 06:05 | 43.87811 | 87.24215 | 4925 ft | 171 kts | 72° |
| 2026-04-21 06:05 | 43.88141 | 87.25759 | 4942 ft | 162 kts | 72° |
| 2026-04-21 06:05 | 43.88462 | 87.27267 | 4776 ft | 160 kts | 72° |
| 2026-04-21 06:05 | 43.88778 | 87.28742 | 4576 ft | 159 kts | 72° |
| 2026-04-21 06:06 | 43.89090 | 87.30195 | 4377 ft | 158 kts | 72° |
| 2026-04-21 06:06 | 43.89404 | 87.31652 | 4175 ft | 158 kts | 72° |
| 2026-04-21 06:06 | 43.89718 | 87.33118 | 3968 ft | 158 kts | 73° |
| 2026-04-21 06:06 | 43.90028 | 87.34561 | 3762 ft | 157 kts | 73° |
| 2026-04-21 06:07 | 43.90355 | 87.36023 | 3515 ft | 158 kts | 73° |
| 2026-04-21 06:07 | 43.90653 | 87.37465 | 3285 ft | 156 kts | 75° |
| 2026-04-21 06:07 | 43.90960 | 87.38918 | 3114 ft | 157 kts | 73° |
| 2026-04-21 06:07 | 43.91273 | 87.40362 | 2896 ft | 157 kts | 73° |
| 2026-04-21 06:08 | 43.91579 | 87.41809 | 2663 ft | 158 kts | 75° |
| 2026-04-21 06:08 | 43.91893 | 87.43222 | 2473 ft | 153 kts | 74° |
| 2026-04-21 06:08 | 43.92203 | 87.44658 | 2290 ft | 153 kts | 76° |
| 2026-04-21 06:08 | 43.92507 | 87.46084 | 2159 ft | 153 kts | 75° |
| 2026-04-21 06:09 | 43.92766 | 87.47327 | 2141 ft | 108 kts | 73° |
| 2026-04-21 06:09 | 43.92928 | 87.48081 | 2141 ft | 54 kts | 72° |
| 2026-04-21 06:09 | 43.92954 | 87.48235 | 2141 ft | 6 kts | 84° |
| 2026-04-21 06:09 | 43.92956 | 87.48264 | 2141 ft | 0 kts | 84° |
| 2026-04-21 06:10 | 43.92957 | 87.48279 | 2141 ft | 4 kts | 84° |
| 2026-04-21 06:10 | 43.92959 | 87.48325 | 2141 ft | 5 kts | 91° |
| 2026-04-21 06:11 | 43.92957 | 87.48386 | 2141 ft | 6 kts | 92° |
| 2026-04-21 06:11 | 43.92952 | 87.48449 | 2141 ft | 6 kts | 99° |
| 2026-04-21 06:11 | 43.92944 | 87.48516 | 2141 ft | 7 kts | 99° |
| 2026-04-21 06:11 | 43.92925 | 87.48587 | 2141 ft | 8 kts | 137° |
| 2026-04-21 06:12 | 43.92867 | 87.48596 | 2141 ft | 9 kts | 201° |
| 2026-04-21 06:12 | 43.92840 | 87.48556 | 2141 ft | 3 kts | 247° |
| 2026-04-21 06:12 | 43.92828 | 87.48518 | 2141 ft | 5 kts | 234° |
| 2026-04-21 06:12 | 43.92816 | 87.48505 | 2141 ft | 1 kts | 207° |
| 2026-04-21 06:13 | 43.92803 | 87.48502 | 2141 ft | 2 kts | 180° |
| 2026-04-21 06:13 | 43.92784 | 87.48508 | 2141 ft | 3 kts | 161° |
| 2026-04-21 06:13 | 43.92755 | 87.48521 | 2141 ft | 5 kts | 163° |
| 2026-04-21 06:13 | 43.92717 | 87.48537 | 2141 ft | 6 kts | 164° |
| 2026-04-21 06:14 | 43.92670 | 87.48555 | 2141 ft | 7 kts | 163° |
| 2026-04-21 06:14 | 43.92616 | 87.48578 | 2141 ft | 8 kts | 162° |
| 2026-04-21 06:14 | 43.92555 | 87.48605 | 2141 ft | 9 kts | 159° |
| 2026-04-21 06:14 | 43.92492 | 87.48645 | 2141 ft | 10 kts | 154° |
| 2026-04-21 06:15 | 43.92421 | 87.48679 | 2141 ft | 11 kts | 163° |
| 2026-04-21 06:15 | 43.92346 | 87.48710 | 2141 ft | 11 kts | 163° |
| 2026-04-21 06:15 | 43.92267 | 87.48743 | 2141 ft | 12 kts | 162° |
| 2026-04-21 06:15 | 43.92184 | 87.48778 | 2141 ft | 12 kts | 162° |
| 2026-04-21 06:16 | 43.92099 | 87.48814 | 2141 ft | 12 kts | 162° |
| 2026-04-21 06:16 | 43.92011 | 87.48851 | 2141 ft | 13 kts | 163° |
| 2026-04-21 06:16 | 43.91921 | 87.48887 | 2141 ft | 13 kts | 163° |
| 2026-04-21 06:16 | 43.91828 | 87.48924 | 2141 ft | 13 kts | 163° |
| 2026-04-21 06:17 | 43.91736 | 87.48962 | 2141 ft | 14 kts | 163° |
| 2026-04-21 06:17 | 43.91642 | 87.49000 | 2141 ft | 14 kts | 163° |
| 2026-04-21 06:17 | 43.91547 | 87.49040 | 2141 ft | 14 kts | 162° |
| 2026-04-21 06:17 | 43.91450 | 87.49081 | 2141 ft | 14 kts | 162° |
| 2026-04-21 06:18 | 43.91383 | 87.49110 | 2141 ft | 8 kts | 162° |
| 2026-04-21 06:18 | 43.91360 | 87.49116 | 2141 ft | 3 kts | 175° |
| 2026-04-21 06:18 | 43.91330 | 87.49107 | 2141 ft | 4 kts | 218° |
| 2026-04-21 06:18 | 43.91321 | 87.49062 | 2141 ft | 5 kts | 277° |
| 2026-04-21 06:19 | 43.91336 | 87.49031 | 2141 ft | 3 kts | 334° |
| 2026-04-21 06:19 | 43.91363 | 87.49034 | 2141 ft | 4 kts | 24° |
| 2026-04-21 06:19 | 43.91383 | 87.49061 | 2141 ft | 4 kts | 46° |
| 2026-04-21 06:19 | 43.91412 | 87.49099 | 2141 ft | 6 kts | 44° |
| 2026-04-21 06:20 | 43.91436 | 87.49157 | 2141 ft | 7 kts | 69° |
| 2026-04-21 06:20 | 43.91440 | 87.49210 | 2141 ft | 4 kts | 114° |
| 2026-04-21 06:20 | 43.91411 | 87.49242 | 2141 ft | 6 kts | 154° |
| 2026-04-21 06:20 | 43.91393 | 87.49250 | 2141 ft | 0 kts | 166° |
| 2026-04-21 06:21 | 43.91385 | 87.49253 | 2141 ft | 1 kts | 163° |
| 2026-04-21 06:21 | 43.91380 | 87.49255 | 2141 ft | 0 kts | 163° |